Douglas, WY (82633)

7:59 PM MST on February 21, 2017 (GMT -0700)
Ridgewater Rd | | Change Station
Active Advisory: Winter Storm Watch

Elev 4885 ft 42.74 °N, 105.43 °W | Updated 15 seconds ago

Clear
Clear
48.6 °F
Feels Like 41 °F
N
21.7
Wind Variable Wind from WSW
Gusts 29.8 mph

Today
High -- | Low -- °F
--% Chance of Precip.
Yesterday
High -- | Low -- °F
Precip. -- in
Pressure 29.70 in
Visibility 10.0 miles
Clouds Clear
Windchill 41 °F
Dew Point 31 °F
Humidity 51%
Rainfall 0.02 in
Snow Depth Not available.
6:49 AM 5:41 PM
Waning Crescent, 20% visible
METAR KDGW 220253Z AUTO 23017G30KT 10SM CLR 11/M01 A2979 RMK AO2 PK WND 22034/0231 LTG DSNT N AND NE SLP058 T01111011 56012
Pressure 29.70 in
Visibility 10.0 miles
Clouds Clear
Windchill 41 °F
Dew Point 31 °F
Humidity 51%
Rainfall 0.02 in
Snow Depth Not available.
6:49 AM 5:41 PM
Waning Crescent, 20% visible
METAR KDGW 220253Z AUTO 23017G30KT 10SM CLR 11/M01 A2979 RMK AO2 PK WND 22034/0231 LTG DSNT N AND NE SLP058 T01111011 56012

Get Your Daily Forecast Email!

Thanks for signing up!

Be on the lookout for a verification email in your inbox.

You'll start receiving the daily forecast at 8 AM.

×

10-Day Weather Forecast

Almanac

Astronomy

Feb. 21, 2017 Rise Set
Actual Time
Civil Twilight
Nautical Twilight
Astronomical Twilight
Moon
Length of Visible Light
Length of Day
Tomorrow will be .
, % of the Moon is Illuminated

Today's Extremes

State Highs State Lows

Community

WunderPhotos

Upload Photos

1,962,540 photos uploaded!

WunderBlog® & News

Nearby

Air Quality

  Air Quality AQ Index Pollutant
Not available.

Snow Depth

Station Depth Elevation

Earthquake Activity

City Distance Mag. Time & Date
Minimum magnitude displayed is 2.5.

Coastal Water Temperatures

Place Temperature

Stations

Nearby Weather Stations

Station Location Temp. Windchill Dew Point Humidity Wind Precip. Elev Updated Type
                   

Watches & Warnings

Winter Storm Watch
Issued: 7:53 PM MST Feb. 21, 2017 – National Weather Service

... Winter Storm Watch remains in effect from Wednesday evening
through Friday morning...

* timing... snow will begin Wednesday night and continue through
Thursday night.

* Total snow accumulations... 6 to 12 inches.

* Winds/visibility... east winds will become north to northeast
by Thursday afternoon into the evening. Gusts to 30 to 35 mph
will be possible. Visibilities will fall below one half mile
at times in falling and patchy blowing snow.

* Impacts... mainly to travel. Hazardous travel conditions will
likely occur due to slick snowpacked roads and low
visibilities.

Precautionary/preparedness actions...

A Winter Storm Watch means there is a potential for significant
snow accumulations that may impact travel. Continue to monitor
the latest forecasts.